sensor_id;sensor_type;location;lat;lon;timestamp;P1;durP1;ratioP1;P2;durP2;ratioP2
28166;SDS011;15455;53.376;-6.262;2024-02-23T00:00:46;4.15;;;2.97;;
28166;SDS011;15455;53.376;-6.262;2024-02-23T00:03:33;2.70;;;2.45;;
28166;SDS011;15455;53.376;-6.262;2024-02-23T00:06:21;6.75;;;2.35;;
28166;SDS011;15455;53.376;-6.262;2024-02-23T00:09:08;3.90;;;2.58;;
28166;SDS011;15455;53.376;-6.262;2024-02-23T00:11:54;6.35;;;2.42;;
28166;SDS011;15455;53.376;-6.262;2024-02-23T00:14:40;8.23;;;2.33;;
28166;SDS011;15455;53.376;-6.262;2024-02-23T00:17:25;3.50;;;2.67;;
28166;SDS011;15455;53.376;-6.262;2024-02-23T00:20:11;1.80;;;1.70;;
28166;SDS011;15455;53.376;-6.262;2024-02-23T00:22:57;7.85;;;2.65;;
28166;SDS011;15455;53.376;-6.262;2024-02-23T00:25:43;2.65;;;2.30;;
28166;SDS011;15455;53.376;-6.262;2024-02-23T00:28:28;2.60;;;2.10;;
28166;SDS011;15455;53.376;-6.262;2024-02-23T00:31:14;8.68;;;1.85;;
28166;SDS011;15455;53.376;-6.262;2024-02-23T00:33:59;4.32;;;2.15;;
28166;SDS011;15455;53.376;-6.262;2024-02-23T00:36:44;4.95;;;2.05;;
28166;SDS011;15455;53.376;-6.262;2024-02-23T00:39:30;2.45;;;2.25;;
28166;SDS011;15455;53.376;-6.262;2024-02-23T00:42:17;2.95;;;1.67;;
28166;SDS011;15455;53.376;-6.262;2024-02-23T00:45:03;2.70;;;1.48;;
28166;SDS011;15455;53.376;-6.262;2024-02-23T00:47:50;4.68;;;2.40;;
28166;SDS011;15455;53.376;-6.262;2024-02-23T00:50:35;1.38;;;1.30;;
28166;SDS011;15455;53.376;-6.262;2024-02-23T00:53:21;3.00;;;1.48;;
28166;SDS011;15455;53.376;-6.262;2024-02-23T00:56:07;7.43;;;1.42;;
28166;SDS011;15455;53.376;-6.262;2024-02-23T00:58:53;1.85;;;1.20;;
28166;SDS011;15455;53.376;-6.262;2024-02-23T01:01:38;3.70;;;1.05;;
28166;SDS011;15455;53.376;-6.262;2024-02-23T01:04:24;1.17;;;1.15;;
28166;SDS011;15455;53.376;-6.262;2024-02-23T01:07:10;3.78;;;1.23;;
28166;SDS011;15455;53.376;-6.262;2024-02-23T01:09:56;6.07;;;1.23;;
28166;SDS011;15455;53.376;-6.262;2024-02-23T01:12:41;5.20;;;1.48;;
28166;SDS011;15455;53.376;-6.262;2024-02-23T01:15:27;2.33;;;1.67;;
28166;SDS011;15455;53.376;-6.262;2024-02-23T01:18:13;5.60;;;1.33;;
28166;SDS011;15455;53.376;-6.262;2024-02-23T01:20:59;3.97;;;1.60;;
28166;SDS011;15455;53.376;-6.262;2024-02-23T01:23:45;4.53;;;1.73;;
28166;SDS011;15455;53.376;-6.262;2024-02-23T01:26:30;4.50;;;1.30;;
28166;SDS011;15455;53.376;-6.262;2024-02-23T01:29:16;13.05;;;1.83;;
28166;SDS011;15455;53.376;-6.262;2024-02-23T01:32:02;9.25;;;1.63;;
28166;SDS011;15455;53.376;-6.262;2024-02-23T01:34:48;1.85;;;1.67;;
28166;SDS011;15455;53.376;-6.262;2024-02-23T01:37:34;11.00;;;2.55;;
28166;SDS011;15455;53.376;-6.262;2024-02-23T01:40:19;6.07;;;1.85;;
28166;SDS011;15455;53.376;-6.262;2024-02-23T01:43:05;4.55;;;1.98;;
28166;SDS011;15455;53.376;-6.262;2024-02-23T01:45:51;6.65;;;2.13;;
28166;SDS011;15455;53.376;-6.262;2024-02-23T01:48:37;2.92;;;2.45;;
28166;SDS011;15455;53.376;-6.262;2024-02-23T01:51:23;1.98;;;1.67;;
28166;SDS011;15455;53.376;-6.262;2024-02-23T01:54:09;3.05;;;1.92;;
28166;SDS011;15455;53.376;-6.262;2024-02-23T01:56:56;1.85;;;1.73;;
28166;SDS011;15455;53.376;-6.262;2024-02-23T01:59:54;4.78;;;2.95;;
28166;SDS011;15455;53.376;-6.262;2024-02-23T02:02:42;1.45;;;1.40;;
28166;SDS011;15455;53.376;-6.262;2024-02-23T02:05:29;15.27;;;4.38;;
28166;SDS011;15455;53.376;-6.262;2024-02-23T02:08:15;1.95;;;1.48;;
28166;SDS011;15455;53.376;-6.262;2024-02-23T02:11:02;10.93;;;1.77;;
28166;SDS011;15455;53.376;-6.262;2024-02-23T02:13:48;6.30;;;2.58;;
28166;SDS011;15455;53.376;-6.262;2024-02-23T02:16:33;2.33;;;2.10;;
28166;SDS011;15455;53.376;-6.262;2024-02-23T02:19:19;2.33;;;2.15;;
28166;SDS011;15455;53.376;-6.262;2024-02-23T02:22:05;6.28;;;2.28;;
28166;SDS011;15455;53.376;-6.262;2024-02-23T02:24:50;9.05;;;2.17;;
28166;SDS011;15455;53.376;-6.262;2024-02-23T02:27:36;5.75;;;1.77;;
28166;SDS011;15455;53.376;-6.262;2024-02-23T02:30:21;4.40;;;2.42;;
28166;SDS011;15455;53.376;-6.262;2024-02-23T02:33:07;6.35;;;3.00;;
28166;SDS011;15455;53.376;-6.262;2024-02-23T02:35:52;3.42;;;2.88;;
28166;SDS011;15455;53.376;-6.262;2024-02-23T02:38:38;3.47;;;3.25;;
28166;SDS011;15455;53.376;-6.262;2024-02-23T02:41:24;2.88;;;2.78;;
28166;SDS011;15455;53.376;-6.262;2024-02-23T02:44:14;4.40;;;3.10;;
28166;SDS011;15455;53.376;-6.262;2024-02-23T02:47:00;3.40;;;3.30;;
28166;SDS011;15455;53.376;-6.262;2024-02-23T02:49:46;9.73;;;3.35;;
28166;SDS011;15455;53.376;-6.262;2024-02-23T02:52:32;2.63;;;2.53;;
28166;SDS011;15455;53.376;-6.262;2024-02-23T02:55:18;5.13;;;2.67;;
28166;SDS011;15455;53.376;-6.262;2024-02-23T02:58:03;4.63;;;3.67;;
28166;SDS011;15455;53.376;-6.262;2024-02-23T03:00:49;3.53;;;3.33;;
28166;SDS011;15455;53.376;-6.262;2024-02-23T03:03:35;6.80;;;3.45;;
28166;SDS011;15455;53.376;-6.262;2024-02-23T03:06:20;6.15;;;3.88;;
28166;SDS011;15455;53.376;-6.262;2024-02-23T03:09:05;5.85;;;3.15;;
28166;SDS011;15455;53.376;-6.262;2024-02-23T03:11:52;3.20;;;3.00;;
28166;SDS011;15455;53.376;-6.262;2024-02-23T03:14:37;5.13;;;2.25;;
28166;SDS011;15455;53.376;-6.262;2024-02-23T03:17:25;2.72;;;2.53;;
28166;SDS011;15455;53.376;-6.262;2024-02-23T03:20:11;3.17;;;2.72;;
28166;SDS011;15455;53.376;-6.262;2024-02-23T03:22:57;10.57;;;2.88;;
28166;SDS011;15455;53.376;-6.262;2024-02-23T03:25:43;4.43;;;3.25;;
28166;SDS011;15455;53.376;-6.262;2024-02-23T03:28:29;3.15;;;2.83;;
28166;SDS011;15455;53.376;-6.262;2024-02-23T03:31:14;4.63;;;3.10;;
28166;SDS011;15455;53.376;-6.262;2024-02-23T03:34:00;3.05;;;2.58;;
28166;SDS011;15455;53.376;-6.262;2024-02-23T03:36:46;2.72;;;2.53;;
28166;SDS011;15455;53.376;-6.262;2024-02-23T03:39:31;2.92;;;2.83;;
28166;SDS011;15455;53.376;-6.262;2024-02-23T03:42:18;3.53;;;3.25;;
28166;SDS011;15455;53.376;-6.262;2024-02-23T03:45:04;3.78;;;3.67;;
28166;SDS011;15455;53.376;-6.262;2024-02-23T03:47:50;4.90;;;4.45;;
28166;SDS011;15455;53.376;-6.262;2024-02-23T03:50:35;2.45;;;2.45;;
28166;SDS011;15455;53.376;-6.262;2024-02-23T03:53:21;3.35;;;1.92;;
28166;SDS011;15455;53.376;-6.262;2024-02-23T03:56:07;6.50;;;2.13;;
28166;SDS011;15455;53.376;-6.262;2024-02-23T03:58:53;2.00;;;2.00;;
28166;SDS011;15455;53.376;-6.262;2024-02-23T04:01:39;2.20;;;2.20;;
28166;SDS011;15455;53.376;-6.262;2024-02-23T04:04:25;2.28;;;2.28;;
28166;SDS011;15455;53.376;-6.262;2024-02-23T04:07:10;2.30;;;2.20;;
28166;SDS011;15455;53.376;-6.262;2024-02-23T04:09:56;1.70;;;1.70;;
28166;SDS011;15455;53.376;-6.262;2024-02-23T04:12:42;2.08;;;1.98;;
28166;SDS011;15455;53.376;-6.262;2024-02-23T04:15:28;5.45;;;2.67;;
28166;SDS011;15455;53.376;-6.262;2024-02-23T04:18:14;2.80;;;2.60;;
28166;SDS011;15455;53.376;-6.262;2024-02-23T04:20:59;2.72;;;1.73;;
28166;SDS011;15455;53.376;-6.262;2024-02-23T04:23:45;3.00;;;2.85;;
28166;SDS011;15455;53.376;-6.262;2024-02-23T04:26:31;3.47;;;3.17;;
28166;SDS011;15455;53.376;-6.262;2024-02-23T04:29:17;3.28;;;3.03;;
28166;SDS011;15455;53.376;-6.262;2024-02-23T04:32:03;5.63;;;3.00;;
28166;SDS011;15455;53.376;-6.262;2024-02-23T04:34:49;4.45;;;4.28;;
28166;SDS011;15455;53.376;-6.262;2024-02-23T04:37:34;3.10;;;3.00;;
28166;SDS011;15455;53.376;-6.262;2024-02-23T04:40:21;3.53;;;2.60;;
28166;SDS011;15455;53.376;-6.262;2024-02-23T04:43:07;2.90;;;2.65;;
28166;SDS011;15455;53.376;-6.262;2024-02-23T04:45:52;2.90;;;2.20;;
28166;SDS011;15455;53.376;-6.262;2024-02-23T04:48:38;16.25;;;2.58;;
28166;SDS011;15455;53.376;-6.262;2024-02-23T04:51:23;4.30;;;4.10;;
28166;SDS011;15455;53.376;-6.262;2024-02-23T04:54:09;4.68;;;4.38;;
28166;SDS011;15455;53.376;-6.262;2024-02-23T04:56:54;3.53;;;3.38;;
28166;SDS011;15455;53.376;-6.262;2024-02-23T04:59:41;3.67;;;3.47;;
28166;SDS011;15455;53.376;-6.262;2024-02-23T05:02:28;3.17;;;3.08;;
28166;SDS011;15455;53.376;-6.262;2024-02-23T05:05:18;2.15;;;1.98;;
28166;SDS011;15455;53.376;-6.262;2024-02-23T05:08:04;2.00;;;1.90;;
28166;SDS011;15455;53.376;-6.262;2024-02-23T05:10:50;2.20;;;2.10;;
28166;SDS011;15455;53.376;-6.262;2024-02-23T05:13:36;2.15;;;2.15;;
28166;SDS011;15455;53.376;-6.262;2024-02-23T05:16:23;1.58;;;1.58;;
28166;SDS011;15455;53.376;-6.262;2024-02-23T05:19:08;2.60;;;2.40;;
28166;SDS011;15455;53.376;-6.262;2024-02-23T05:21:54;3.58;;;2.85;;
28166;SDS011;15455;53.376;-6.262;2024-02-23T05:24:39;2.25;;;1.63;;
28166;SDS011;15455;53.376;-6.262;2024-02-23T05:27:25;2.20;;;1.45;;
28166;SDS011;15455;53.376;-6.262;2024-02-23T05:30:12;1.67;;;1.48;;
28166;SDS011;15455;53.376;-6.262;2024-02-23T05:32:59;3.42;;;1.50;;
28166;SDS011;15455;53.376;-6.262;2024-02-23T05:35:47;1.70;;;1.60;;
28166;SDS011;15455;53.376;-6.262;2024-02-23T05:38:35;5.45;;;1.52;;
28166;SDS011;15455;53.376;-6.262;2024-02-23T05:41:21;5.32;;;1.50;;
28166;SDS011;15455;53.376;-6.262;2024-02-23T05:44:06;1.83;;;1.67;;
28166;SDS011;15455;53.376;-6.262;2024-02-23T05:46:53;2.85;;;2.08;;
28166;SDS011;15455;53.376;-6.262;2024-02-23T05:49:38;5.20;;;2.10;;
28166;SDS011;15455;53.376;-6.262;2024-02-23T05:52:24;1.83;;;1.83;;
28166;SDS011;15455;53.376;-6.262;2024-02-23T05:55:10;1.75;;;1.65;;
28166;SDS011;15455;53.376;-6.262;2024-02-23T05:57:55;5.93;;;2.50;;
28166;SDS011;15455;53.376;-6.262;2024-02-23T06:00:41;1.63;;;1.63;;
28166;SDS011;15455;53.376;-6.262;2024-02-23T06:03:27;3.05;;;2.80;;
28166;SDS011;15455;53.376;-6.262;2024-02-23T06:06:13;5.28;;;2.60;;
28166;SDS011;15455;53.376;-6.262;2024-02-23T06:08:59;4.97;;;3.42;;
28166;SDS011;15455;53.376;-6.262;2024-02-23T06:11:46;2.75;;;2.55;;
28166;SDS011;15455;53.376;-6.262;2024-02-23T06:14:31;2.92;;;2.58;;
28166;SDS011;15455;53.376;-6.262;2024-02-23T06:17:17;9.32;;;2.75;;
28166;SDS011;15455;53.376;-6.262;2024-02-23T06:20:03;6.03;;;2.55;;
28166;SDS011;15455;53.376;-6.262;2024-02-23T06:22:52;3.88;;;3.22;;
28166;SDS011;15455;53.376;-6.262;2024-02-23T06:25:37;4.78;;;3.35;;
28166;SDS011;15455;53.376;-6.262;2024-02-23T06:28:23;9.20;;;3.83;;
28166;SDS011;15455;53.376;-6.262;2024-02-23T06:31:08;3.90;;;3.55;;
28166;SDS011;15455;53.376;-6.262;2024-02-23T06:33:55;3.17;;;2.78;;
28166;SDS011;15455;53.376;-6.262;2024-02-23T06:36:41;6.13;;;4.07;;
28166;SDS011;15455;53.376;-6.262;2024-02-23T06:39:27;3.88;;;3.58;;
28166;SDS011;15455;53.376;-6.262;2024-02-23T06:42:12;4.03;;;3.92;;
28166;SDS011;15455;53.376;-6.262;2024-02-23T06:44:58;5.45;;;5.15;;
28166;SDS011;15455;53.376;-6.262;2024-02-23T06:47:44;7.05;;;5.35;;
28166;SDS011;15455;53.376;-6.262;2024-02-23T06:50:30;7.38;;;6.15;;
28166;SDS011;15455;53.376;-6.262;2024-02-23T06:53:15;9.27;;;5.40;;
28166;SDS011;15455;53.376;-6.262;2024-02-23T06:56:01;4.47;;;4.22;;
28166;SDS011;15455;53.376;-6.262;2024-02-23T06:58:47;7.45;;;3.28;;
28166;SDS011;15455;53.376;-6.262;2024-02-23T07:01:32;6.05;;;3.28;;
28166;SDS011;15455;53.376;-6.262;2024-02-23T07:04:24;3.22;;;2.60;;
28166;SDS011;15455;53.376;-6.262;2024-02-23T07:07:10;2.90;;;2.80;;
28166;SDS011;15455;53.376;-6.262;2024-02-23T07:09:56;6.25;;;4.13;;
28166;SDS011;15455;53.376;-6.262;2024-02-23T07:12:42;9.20;;;2.75;;
28166;SDS011;15455;53.376;-6.262;2024-02-23T07:15:29;4.70;;;4.30;;
28166;SDS011;15455;53.376;-6.262;2024-02-23T07:18:15;7.05;;;3.35;;
28166;SDS011;15455;53.376;-6.262;2024-02-23T07:21:01;4.32;;;3.67;;
28166;SDS011;15455;53.376;-6.262;2024-02-23T07:23:47;5.55;;;3.97;;
28166;SDS011;15455;53.376;-6.262;2024-02-23T07:26:33;4.88;;;4.07;;
28166;SDS011;15455;53.376;-6.262;2024-02-23T07:29:19;4.30;;;4.05;;
28166;SDS011;15455;53.376;-6.262;2024-02-23T07:32:05;7.60;;;2.83;;
28166;SDS011;15455;53.376;-6.262;2024-02-23T07:34:51;4.85;;;2.70;;
28166;SDS011;15455;53.376;-6.262;2024-02-23T07:37:38;2.78;;;2.60;;
28166;SDS011;15455;53.376;-6.262;2024-02-23T07:40:24;3.28;;;2.58;;
28166;SDS011;15455;53.376;-6.262;2024-02-23T07:43:09;5.28;;;2.88;;
28166;SDS011;15455;53.376;-6.262;2024-02-23T07:45:57;11.18;;;4.05;;
28166;SDS011;15455;53.376;-6.262;2024-02-23T07:48:43;5.35;;;2.75;;
28166;SDS011;15455;53.376;-6.262;2024-02-23T07:51:29;4.53;;;4.32;;
28166;SDS011;15455;53.376;-6.262;2024-02-23T07:54:14;4.18;;;4.03;;
28166;SDS011;15455;53.376;-6.262;2024-02-23T07:57:00;8.25;;;4.00;;
28166;SDS011;15455;53.376;-6.262;2024-02-23T07:59:46;4.70;;;4.25;;
28166;SDS011;15455;53.376;-6.262;2024-02-23T08:02:31;6.18;;;2.55;;
28166;SDS011;15455;53.376;-6.262;2024-02-23T08:05:17;5.15;;;3.60;;
28166;SDS011;15455;53.376;-6.262;2024-02-23T08:08:03;3.85;;;3.55;;
28166;SDS011;15455;53.376;-6.262;2024-02-23T08:10:49;3.97;;;3.88;;
28166;SDS011;15455;53.376;-6.262;2024-02-23T08:13:35;8.20;;;5.03;;
28166;SDS011;15455;53.376;-6.262;2024-02-23T08:16:21;4.78;;;4.47;;
28166;SDS011;15455;53.376;-6.262;2024-02-23T08:19:07;4.70;;;4.07;;
28166;SDS011;15455;53.376;-6.262;2024-02-23T08:21:53;5.57;;;4.60;;
28166;SDS011;15455;53.376;-6.262;2024-02-23T08:24:39;6.63;;;5.97;;
28166;SDS011;15455;53.376;-6.262;2024-02-23T08:27:25;6.07;;;5.57;;
28166;SDS011;15455;53.376;-6.262;2024-02-23T08:30:10;7.32;;;5.18;;
28166;SDS011;15455;53.376;-6.262;2024-02-23T08:32:56;7.75;;;6.05;;
28166;SDS011;15455;53.376;-6.262;2024-02-23T08:35:42;4.72;;;4.45;;
28166;SDS011;15455;53.376;-6.262;2024-02-23T08:38:28;5.15;;;4.75;;
28166;SDS011;15455;53.376;-6.262;2024-02-23T08:41:14;4.13;;;3.97;;
28166;SDS011;15455;53.376;-6.262;2024-02-23T08:44:00;4.40;;;4.03;;
28166;SDS011;15455;53.376;-6.262;2024-02-23T08:46:46;6.05;;;3.10;;
28166;SDS011;15455;53.376;-6.262;2024-02-23T08:49:33;3.50;;;3.30;;
28166;SDS011;15455;53.376;-6.262;2024-02-23T08:52:19;4.55;;;2.63;;
28166;SDS011;15455;53.376;-6.262;2024-02-23T08:55:05;4.38;;;2.83;;
28166;SDS011;15455;53.376;-6.262;2024-02-23T08:57:51;3.45;;;3.28;;
28166;SDS011;15455;53.376;-6.262;2024-02-23T09:00:37;2.60;;;2.40;;
28166;SDS011;15455;53.376;-6.262;2024-02-23T09:03:22;2.85;;;2.67;;
28166;SDS011;15455;53.376;-6.262;2024-02-23T09:06:07;2.97;;;2.72;;
28166;SDS011;15455;53.376;-6.262;2024-02-23T09:08:53;2.15;;;2.05;;
28166;SDS011;15455;53.376;-6.262;2024-02-23T09:11:39;3.30;;;2.28;;
28166;SDS011;15455;53.376;-6.262;2024-02-23T09:14:24;2.42;;;2.17;;
28166;SDS011;15455;53.376;-6.262;2024-02-23T09:17:13;3.17;;;2.03;;
28166;SDS011;15455;53.376;-6.262;2024-02-23T09:19:58;2.75;;;2.10;;
28166;SDS011;15455;53.376;-6.262;2024-02-23T09:22:44;4.18;;;1.90;;
28166;SDS011;15455;53.376;-6.262;2024-02-23T09:25:30;2.63;;;2.38;;
28166;SDS011;15455;53.376;-6.262;2024-02-23T09:28:15;4.13;;;2.40;;
28166;SDS011;15455;53.376;-6.262;2024-02-23T09:31:01;1.80;;;1.70;;
28166;SDS011;15455;53.376;-6.262;2024-02-23T09:33:48;2.33;;;1.98;;
28166;SDS011;15455;53.376;-6.262;2024-02-23T09:36:36;5.65;;;2.35;;
28166;SDS011;15455;53.376;-6.262;2024-02-23T09:39:22;1.75;;;1.75;;
28166;SDS011;15455;53.376;-6.262;2024-02-23T09:42:09;3.00;;;2.03;;
28166;SDS011;15455;53.376;-6.262;2024-02-23T09:44:58;4.43;;;2.65;;
28166;SDS011;15455;53.376;-6.262;2024-02-23T09:47:46;2.22;;;2.13;;
28166;SDS011;15455;53.376;-6.262;2024-02-23T09:50:33;2.38;;;2.17;;
28166;SDS011;15455;53.376;-6.262;2024-02-23T09:53:20;4.38;;;2.30;;
28166;SDS011;15455;53.376;-6.262;2024-02-23T09:56:07;5.03;;;2.72;;
28166;SDS011;15455;53.376;-6.262;2024-02-23T09:58:59;2.75;;;2.65;;
28166;SDS011;15455;53.376;-6.262;2024-02-23T10:01:47;5.45;;;2.72;;
28166;SDS011;15455;53.376;-6.262;2024-02-23T10:04:32;2.33;;;2.10;;
28166;SDS011;15455;53.376;-6.262;2024-02-23T10:07:18;2.78;;;2.45;;
28166;SDS011;15455;53.376;-6.262;2024-02-23T10:10:08;2.53;;;2.08;;
28166;SDS011;15455;53.376;-6.262;2024-02-23T10:12:54;1.88;;;1.77;;
28166;SDS011;15455;53.376;-6.262;2024-02-23T10:15:40;2.08;;;1.98;;
28166;SDS011;15455;53.376;-6.262;2024-02-23T10:18:46;1.85;;;1.70;;
28166;SDS011;15455;53.376;-6.262;2024-02-23T10:21:35;5.18;;;1.60;;
28166;SDS011;15455;53.376;-6.262;2024-02-23T10:24:22;6.63;;;1.83;;
28166;SDS011;15455;53.376;-6.262;2024-02-23T10:27:10;1.60;;;1.50;;
28166;SDS011;15455;53.376;-6.262;2024-02-23T10:29:55;3.25;;;1.60;;
28166;SDS011;15455;53.376;-6.262;2024-02-23T10:32:41;3.95;;;1.88;;
28166;SDS011;15455;53.376;-6.262;2024-02-23T10:35:28;2.92;;;2.10;;
28166;SDS011;15455;53.376;-6.262;2024-02-23T10:38:15;9.95;;;1.75;;
28166;SDS011;15455;53.376;-6.262;2024-02-23T10:41:05;6.70;;;1.40;;
28166;SDS011;15455;53.376;-6.262;2024-02-23T10:43:52;4.18;;;1.70;;
28166;SDS011;15455;53.376;-6.262;2024-02-23T10:46:39;4.78;;;1.25;;
28166;SDS011;15455;53.376;-6.262;2024-02-23T10:49:26;6.82;;;1.55;;
28166;SDS011;15455;53.376;-6.262;2024-02-23T10:52:13;2.05;;;1.10;;
28166;SDS011;15455;53.376;-6.262;2024-02-23T10:55:00;2.85;;;2.03;;
28166;SDS011;15455;53.376;-6.262;2024-02-23T10:57:49;1.45;;;1.17;;
28166;SDS011;15455;53.376;-6.262;2024-02-23T11:00:38;2.90;;;2.30;;
28166;SDS011;15455;53.376;-6.262;2024-02-23T11:03:24;1.10;;;1.00;;
28166;SDS011;15455;53.376;-6.262;2024-02-23T11:06:11;7.35;;;1.80;;
28166;SDS011;15455;53.376;-6.262;2024-02-23T11:09:07;6.18;;;1.40;;
28166;SDS011;15455;53.376;-6.262;2024-02-23T11:11:54;3.03;;;1.38;;
28166;SDS011;15455;53.376;-6.262;2024-02-23T11:14:42;2.67;;;1.08;;
28166;SDS011;15455;53.376;-6.262;2024-02-23T11:17:30;2.00;;;1.50;;
28166;SDS011;15455;53.376;-6.262;2024-02-23T11:20:18;4.00;;;1.23;;
28166;SDS011;15455;53.376;-6.262;2024-02-23T11:23:15;4.47;;;1.30;;
28166;SDS011;15455;53.376;-6.262;2024-02-23T11:28:48;2.05;;;1.85;;
28166;SDS011;15455;53.376;-6.262;2024-02-23T11:31:37;6.13;;;1.17;;
28166;SDS011;15455;53.376;-6.262;2024-02-23T11:34:31;3.72;;;1.30;;
28166;SDS011;15455;53.376;-6.262;2024-02-23T11:37:16;0.70;;;0.70;;
28166;SDS011;15455;53.376;-6.262;2024-02-23T11:40:04;5.88;;;1.20;;
28166;SDS011;15455;53.376;-6.262;2024-02-23T11:42:51;4.38;;;1.23;;
28166;SDS011;15455;53.376;-6.262;2024-02-23T11:45:37;1.33;;;1.20;;
28166;SDS011;15455;53.376;-6.262;2024-02-23T11:48:23;3.28;;;1.00;;
28166;SDS011;15455;53.376;-6.262;2024-02-23T11:51:09;2.00;;;1.13;;
28166;SDS011;15455;53.376;-6.262;2024-02-23T11:53:55;4.05;;;1.15;;
28166;SDS011;15455;53.376;-6.262;2024-02-23T11:56:43;1.52;;;1.10;;
28166;SDS011;15455;53.376;-6.262;2024-02-23T11:59:29;6.22;;;0.80;;
28166;SDS011;15455;53.376;-6.262;2024-02-23T12:02:15;7.28;;;0.98;;
28166;SDS011;15455;53.376;-6.262;2024-02-23T12:05:00;2.42;;;0.93;;
28166;SDS011;15455;53.376;-6.262;2024-02-23T12:07:46;8.18;;;2.08;;
28166;SDS011;15455;53.376;-6.262;2024-02-23T12:10:32;2.58;;;0.90;;
28166;SDS011;15455;53.376;-6.262;2024-02-23T12:13:18;3.67;;;1.10;;
28166;SDS011;15455;53.376;-6.262;2024-02-23T12:16:04;6.95;;;0.93;;
28166;SDS011;15455;53.376;-6.262;2024-02-23T12:18:53;2.33;;;1.20;;
28166;SDS011;15455;53.376;-6.262;2024-02-23T12:21:40;6.05;;;1.95;;
28166;SDS011;15455;53.376;-6.262;2024-02-23T12:24:26;3.55;;;1.13;;
28166;SDS011;15455;53.376;-6.262;2024-02-23T12:27:16;2.53;;;0.90;;
28166;SDS011;15455;53.376;-6.262;2024-02-23T12:30:02;5.03;;;1.35;;
28166;SDS011;15455;53.376;-6.262;2024-02-23T12:32:49;2.50;;;0.80;;
28166;SDS011;15455;53.376;-6.262;2024-02-23T12:35:35;6.13;;;1.15;;
28166;SDS011;15455;53.376;-6.262;2024-02-23T12:38:23;2.28;;;0.88;;
28166;SDS011;15455;53.376;-6.262;2024-02-23T12:41:09;3.30;;;0.80;;
28166;SDS011;15455;53.376;-6.262;2024-02-23T12:43:56;1.27;;;0.70;;
28166;SDS011;15455;53.376;-6.262;2024-02-23T12:46:42;3.97;;;1.08;;
28166;SDS011;15455;53.376;-6.262;2024-02-23T12:49:28;9.15;;;1.55;;
28166;SDS011;15455;53.376;-6.262;2024-02-23T12:52:13;1.52;;;1.00;;
28166;SDS011;15455;53.376;-6.262;2024-02-23T12:54:59;2.40;;;0.57;;
28166;SDS011;15455;53.376;-6.262;2024-02-23T12:57:45;3.60;;;0.85;;
28166;SDS011;15455;53.376;-6.262;2024-02-23T13:00:30;3.50;;;0.70;;
28166;SDS011;15455;53.376;-6.262;2024-02-23T13:03:16;4.85;;;0.90;;
28166;SDS011;15455;53.376;-6.262;2024-02-23T13:06:01;1.48;;;0.80;;
28166;SDS011;15455;53.376;-6.262;2024-02-23T13:08:47;6.90;;;0.93;;
28166;SDS011;15455;53.376;-6.262;2024-02-23T13:11:34;11.20;;;0.80;;
28166;SDS011;15455;53.376;-6.262;2024-02-23T13:14:20;1.35;;;0.85;;
28166;SDS011;15455;53.376;-6.262;2024-02-23T13:17:05;7.65;;;1.90;;
28166;SDS011;15455;53.376;-6.262;2024-02-23T13:19:51;4.97;;;1.10;;
28166;SDS011;15455;53.376;-6.262;2024-02-23T13:22:55;1.00;;;0.70;;
28166;SDS011;15455;53.376;-6.262;2024-02-23T13:25:41;1.83;;;0.80;;
28166;SDS011;15455;53.376;-6.262;2024-02-23T13:28:28;2.90;;;0.70;;
28166;SDS011;15455;53.376;-6.262;2024-02-23T13:31:13;1.15;;;0.50;;
28166;SDS011;15455;53.376;-6.262;2024-02-23T13:34:00;1.30;;;0.57;;
28166;SDS011;15455;53.376;-6.262;2024-02-23T13:36:46;2.90;;;0.85;;
28166;SDS011;15455;53.376;-6.262;2024-02-23T13:39:35;0.75;;;0.75;;
28166;SDS011;15455;53.376;-6.262;2024-02-23T13:42:21;0.73;;;0.50;;
28166;SDS011;15455;53.376;-6.262;2024-02-23T13:45:06;5.88;;;0.70;;
28166;SDS011;15455;53.376;-6.262;2024-02-23T13:47:58;1.63;;;0.80;;
28166;SDS011;15455;53.376;-6.262;2024-02-23T13:50:48;6.30;;;0.65;;
28166;SDS011;15455;53.376;-6.262;2024-02-23T13:53:34;1.38;;;0.65;;
28166;SDS011;15455;53.376;-6.262;2024-02-23T13:56:22;1.35;;;0.77;;
28166;SDS011;15455;53.376;-6.262;2024-02-23T13:59:11;5.70;;;1.25;;
28166;SDS011;15455;53.376;-6.262;2024-02-23T14:02:00;2.60;;;0.80;;
28166;SDS011;15455;53.376;-6.262;2024-02-23T14:04:46;5.22;;;0.75;;
28166;SDS011;15455;53.376;-6.262;2024-02-23T14:07:33;2.90;;;0.60;;
28166;SDS011;15455;53.376;-6.262;2024-02-23T14:10:19;6.68;;;0.52;;
28166;SDS011;15455;53.376;-6.262;2024-02-23T14:13:05;0.68;;;0.40;;
28166;SDS011;15455;53.376;-6.262;2024-02-23T14:15:51;3.80;;;0.80;;
28166;SDS011;15455;53.376;-6.262;2024-02-23T14:18:36;3.95;;;0.85;;
28166;SDS011;15455;53.376;-6.262;2024-02-23T14:21:23;1.75;;;0.60;;
28166;SDS011;15455;53.376;-6.262;2024-02-23T14:24:10;4.88;;;1.00;;
28166;SDS011;15455;53.376;-6.262;2024-02-23T14:26:55;0.40;;;0.40;;
28166;SDS011;15455;53.376;-6.262;2024-02-23T14:29:41;5.22;;;0.60;;
28166;SDS011;15455;53.376;-6.262;2024-02-23T14:32:26;3.03;;;0.60;;
28166;SDS011;15455;53.376;-6.262;2024-02-23T14:35:12;3.83;;;0.60;;
28166;SDS011;15455;53.376;-6.262;2024-02-23T14:37:58;1.63;;;0.82;;
28166;SDS011;15455;53.376;-6.262;2024-02-23T14:40:43;3.80;;;0.70;;
28166;SDS011;15455;53.376;-6.262;2024-02-23T14:43:29;2.35;;;0.82;;
28166;SDS011;15455;53.376;-6.262;2024-02-23T14:46:16;1.48;;;0.60;;
28166;SDS011;15455;53.376;-6.262;2024-02-23T14:49:01;0.30;;;0.30;;
28166;SDS011;15455;53.376;-6.262;2024-02-23T14:51:48;1.15;;;0.60;;
28166;SDS011;15455;53.376;-6.262;2024-02-23T14:54:33;3.42;;;0.60;;
28166;SDS011;15455;53.376;-6.262;2024-02-23T14:57:18;1.90;;;0.70;;
28166;SDS011;15455;53.376;-6.262;2024-02-23T15:00:04;8.35;;;0.77;;
28166;SDS011;15455;53.376;-6.262;2024-02-23T15:02:50;3.75;;;0.82;;
28166;SDS011;15455;53.376;-6.262;2024-02-23T15:05:36;8.40;;;0.90;;
28166;SDS011;15455;53.376;-6.262;2024-02-23T15:08:22;6.35;;;1.33;;
28166;SDS011;15455;53.376;-6.262;2024-02-23T15:11:08;4.78;;;0.80;;
28166;SDS011;15455;53.376;-6.262;2024-02-23T15:13:54;5.05;;;0.95;;
28166;SDS011;15455;53.376;-6.262;2024-02-23T15:16:43;4.65;;;1.13;;
28166;SDS011;15455;53.376;-6.262;2024-02-23T15:19:29;9.65;;;1.30;;
28166;SDS011;15455;53.376;-6.262;2024-02-23T15:22:15;4.78;;;1.17;;
28166;SDS011;15455;53.376;-6.262;2024-02-23T15:25:02;6.97;;;1.10;;
28166;SDS011;15455;53.376;-6.262;2024-02-23T15:27:51;5.25;;;1.42;;
28166;SDS011;15455;53.376;-6.262;2024-02-23T15:30:38;4.25;;;1.00;;
28166;SDS011;15455;53.376;-6.262;2024-02-23T15:33:24;3.70;;;1.48;;
28166;SDS011;15455;53.376;-6.262;2024-02-23T15:36:10;8.23;;;1.20;;
28166;SDS011;15455;53.376;-6.262;2024-02-23T15:38:55;7.03;;;1.08;;
28166;SDS011;15455;53.376;-6.262;2024-02-23T15:41:48;3.33;;;1.05;;
28166;SDS011;15455;53.376;-6.262;2024-02-23T15:44:35;1.48;;;0.95;;
28166;SDS011;15455;53.376;-6.262;2024-02-23T15:47:20;2.00;;;0.85;;
28166;SDS011;15455;53.376;-6.262;2024-02-23T15:50:06;10.05;;;1.52;;
28166;SDS011;15455;53.376;-6.262;2024-02-23T15:53:11;4.80;;;0.98;;
28166;SDS011;15455;53.376;-6.262;2024-02-23T15:55:57;6.30;;;1.15;;
28166;SDS011;15455;53.376;-6.262;2024-02-23T15:58:43;4.32;;;0.82;;
28166;SDS011;15455;53.376;-6.262;2024-02-23T16:01:28;13.15;;;1.40;;
28166;SDS011;15455;53.376;-6.262;2024-02-23T16:04:16;3.40;;;1.10;;
28166;SDS011;15455;53.376;-6.262;2024-02-23T16:07:02;3.45;;;0.95;;
28166;SDS011;15455;53.376;-6.262;2024-02-23T16:09:48;5.03;;;1.33;;
28166;SDS011;15455;53.376;-6.262;2024-02-23T16:12:33;5.53;;;1.00;;
28166;SDS011;15455;53.376;-6.262;2024-02-23T16:15:19;3.50;;;1.00;;
28166;SDS011;15455;53.376;-6.262;2024-02-23T16:18:04;4.57;;;0.90;;
28166;SDS011;15455;53.376;-6.262;2024-02-23T16:20:53;10.13;;;1.05;;
28166;SDS011;15455;53.376;-6.262;2024-02-23T16:23:38;6.38;;;1.00;;
28166;SDS011;15455;53.376;-6.262;2024-02-23T16:26:24;4.45;;;1.27;;
28166;SDS011;15455;53.376;-6.262;2024-02-23T16:29:10;2.42;;;0.88;;